sensor_id;sensor_type;location;lat;lon;timestamp;P1;durP1;ratioP1;P2;durP2;ratioP2
3733;SDS011;1882;52.256;8.874;2023-08-08T00:01:54;5.70;;;4.13;;
3733;SDS011;1882;52.256;8.874;2023-08-08T00:04:22;12.40;;;4.70;;
3733;SDS011;1882;52.256;8.874;2023-08-08T00:06:49;8.73;;;4.50;;
3733;SDS011;1882;52.256;8.874;2023-08-08T00:09:16;7.70;;;4.80;;
3733;SDS011;1882;52.256;8.874;2023-08-08T00:11:45;6.27;;;4.27;;
3733;SDS011;1882;52.256;8.874;2023-08-08T00:14:14;7.00;;;4.37;;
3733;SDS011;1882;52.256;8.874;2023-08-08T00:16:41;6.93;;;4.40;;
3733;SDS011;1882;52.256;8.874;2023-08-08T00:19:08;7.77;;;4.30;;
3733;SDS011;1882;52.256;8.874;2023-08-08T00:21:36;8.93;;;4.93;;
3733;SDS011;1882;52.256;8.874;2023-08-08T00:24:03;9.10;;;4.80;;
3733;SDS011;1882;52.256;8.874;2023-08-08T00:26:30;8.47;;;4.83;;
3733;SDS011;1882;52.256;8.874;2023-08-08T00:28:57;8.93;;;4.40;;
3733;SDS011;1882;52.256;8.874;2023-08-08T00:31:24;10.73;;;4.97;;
3733;SDS011;1882;52.256;8.874;2023-08-08T00:33:54;8.23;;;5.10;;
3733;SDS011;1882;52.256;8.874;2023-08-08T00:36:21;14.07;;;5.10;;
3733;SDS011;1882;52.256;8.874;2023-08-08T00:38:47;9.20;;;4.80;;
3733;SDS011;1882;52.256;8.874;2023-08-08T00:41:15;9.07;;;4.80;;
3733;SDS011;1882;52.256;8.874;2023-08-08T00:43:42;11.00;;;5.10;;
3733;SDS011;1882;52.256;8.874;2023-08-08T00:46:10;7.27;;;4.87;;
3733;SDS011;1882;52.256;8.874;2023-08-08T00:48:37;9.10;;;5.20;;
3733;SDS011;1882;52.256;8.874;2023-08-08T00:51:04;9.87;;;5.73;;
3733;SDS011;1882;52.256;8.874;2023-08-08T00:53:31;9.60;;;5.17;;
3733;SDS011;1882;52.256;8.874;2023-08-08T00:55:58;7.50;;;5.23;;
3733;SDS011;1882;52.256;8.874;2023-08-08T00:58:28;7.93;;;5.30;;
3733;SDS011;1882;52.256;8.874;2023-08-08T01:01:00;7.30;;;5.40;;
3733;SDS011;1882;52.256;8.874;2023-08-08T01:03:29;10.93;;;6.13;;
3733;SDS011;1882;52.256;8.874;2023-08-08T01:06:10;9.57;;;6.07;;
3733;SDS011;1882;52.256;8.874;2023-08-08T01:09:20;8.53;;;5.50;;
3733;SDS011;1882;52.256;8.874;2023-08-08T01:11:48;9.57;;;5.57;;
3733;SDS011;1882;52.256;8.874;2023-08-08T01:14:16;13.20;;;6.60;;
3733;SDS011;1882;52.256;8.874;2023-08-08T01:16:47;11.93;;;6.23;;
3733;SDS011;1882;52.256;8.874;2023-08-08T01:19:26;7.10;;;5.30;;
3733;SDS011;1882;52.256;8.874;2023-08-08T01:21:54;14.40;;;6.20;;
3733;SDS011;1882;52.256;8.874;2023-08-08T01:24:34;8.73;;;5.83;;
3733;SDS011;1882;52.256;8.874;2023-08-08T01:27:04;12.03;;;5.97;;
3733;SDS011;1882;52.256;8.874;2023-08-08T01:29:32;15.70;;;5.70;;
3733;SDS011;1882;52.256;8.874;2023-08-08T01:32:01;10.57;;;6.43;;
3733;SDS011;1882;52.256;8.874;2023-08-08T01:34:28;17.43;;;6.67;;
3733;SDS011;1882;52.256;8.874;2023-08-08T01:36:59;11.93;;;5.57;;
3733;SDS011;1882;52.256;8.874;2023-08-08T01:39:31;9.67;;;6.00;;
3733;SDS011;1882;52.256;8.874;2023-08-08T01:41:59;11.53;;;5.50;;
3733;SDS011;1882;52.256;8.874;2023-08-08T01:44:29;13.37;;;6.50;;
3733;SDS011;1882;52.256;8.874;2023-08-08T01:46:59;10.73;;;5.67;;
3733;SDS011;1882;52.256;8.874;2023-08-08T01:49:26;10.50;;;6.40;;
3733;SDS011;1882;52.256;8.874;2023-08-08T01:51:54;10.83;;;6.40;;
3733;SDS011;1882;52.256;8.874;2023-08-08T01:54:21;8.73;;;5.43;;
3733;SDS011;1882;52.256;8.874;2023-08-08T01:56:49;10.60;;;6.43;;
3733;SDS011;1882;52.256;8.874;2023-08-08T01:59:16;11.13;;;6.20;;
3733;SDS011;1882;52.256;8.874;2023-08-08T02:01:43;9.77;;;6.00;;
3733;SDS011;1882;52.256;8.874;2023-08-08T02:04:16;11.70;;;6.20;;
3733;SDS011;1882;52.256;8.874;2023-08-08T02:06:45;14.73;;;6.17;;
3733;SDS011;1882;52.256;8.874;2023-08-08T02:09:14;9.83;;;5.40;;
3733;SDS011;1882;52.256;8.874;2023-08-08T02:11:42;10.37;;;6.27;;
3733;SDS011;1882;52.256;8.874;2023-08-08T02:14:09;8.80;;;6.47;;
3733;SDS011;1882;52.256;8.874;2023-08-08T02:16:36;12.63;;;6.60;;
3733;SDS011;1882;52.256;8.874;2023-08-08T02:19:02;7.33;;;5.87;;
3733;SDS011;1882;52.256;8.874;2023-08-08T02:21:29;9.20;;;6.10;;
3733;SDS011;1882;52.256;8.874;2023-08-08T02:23:59;8.53;;;6.00;;
3733;SDS011;1882;52.256;8.874;2023-08-08T02:26:25;13.43;;;5.47;;
3733;SDS011;1882;52.256;8.874;2023-08-08T02:28:52;8.70;;;5.63;;
3733;SDS011;1882;52.256;8.874;2023-08-08T02:31:19;10.20;;;5.57;;
3733;SDS011;1882;52.256;8.874;2023-08-08T02:33:51;11.03;;;5.87;;
3733;SDS011;1882;52.256;8.874;2023-08-08T02:36:18;6.53;;;5.03;;
3733;SDS011;1882;52.256;8.874;2023-08-08T02:38:45;12.50;;;6.10;;
3733;SDS011;1882;52.256;8.874;2023-08-08T02:41:12;8.67;;;5.40;;
3733;SDS011;1882;52.256;8.874;2023-08-08T02:43:38;7.50;;;5.30;;
3733;SDS011;1882;52.256;8.874;2023-08-08T02:46:05;8.83;;;5.97;;
3733;SDS011;1882;52.256;8.874;2023-08-08T02:48:32;9.80;;;5.87;;
3733;SDS011;1882;52.256;8.874;2023-08-08T02:50:59;8.20;;;4.90;;
3733;SDS011;1882;52.256;8.874;2023-08-08T02:53:28;11.77;;;5.63;;
3733;SDS011;1882;52.256;8.874;2023-08-08T02:55:55;16.07;;;5.97;;
3733;SDS011;1882;52.256;8.874;2023-08-08T02:58:22;9.20;;;5.70;;
3733;SDS011;1882;52.256;8.874;2023-08-08T03:00:57;9.53;;;4.80;;
3733;SDS011;1882;52.256;8.874;2023-08-08T03:03:24;8.57;;;5.37;;
3733;SDS011;1882;52.256;8.874;2023-08-08T03:05:51;8.00;;;4.70;;
3733;SDS011;1882;52.256;8.874;2023-08-08T03:08:20;8.07;;;5.13;;
3733;SDS011;1882;52.256;8.874;2023-08-08T03:10:47;6.40;;;4.93;;
3733;SDS011;1882;52.256;8.874;2023-08-08T03:13:13;9.83;;;5.70;;
3733;SDS011;1882;52.256;8.874;2023-08-08T03:15:41;8.00;;;5.30;;
3733;SDS011;1882;52.256;8.874;2023-08-08T03:18:08;8.97;;;5.30;;
3733;SDS011;1882;52.256;8.874;2023-08-08T03:20:41;11.10;;;5.03;;
3733;SDS011;1882;52.256;8.874;2023-08-08T03:23:10;7.63;;;4.83;;
3733;SDS011;1882;52.256;8.874;2023-08-08T03:25:38;7.17;;;4.47;;
3733;SDS011;1882;52.256;8.874;2023-08-08T03:28:06;8.17;;;4.77;;
3733;SDS011;1882;52.256;8.874;2023-08-08T03:30:33;7.10;;;4.80;;
3733;SDS011;1882;52.256;8.874;2023-08-08T03:32:59;7.53;;;4.40;;
3733;SDS011;1882;52.256;8.874;2023-08-08T03:35:27;13.67;;;5.40;;
3733;SDS011;1882;52.256;8.874;2023-08-08T03:37:54;7.40;;;4.97;;
3733;SDS011;1882;52.256;8.874;2023-08-08T03:40:21;6.50;;;4.50;;
3733;SDS011;1882;52.256;8.874;2023-08-08T03:42:48;9.90;;;4.70;;
3733;SDS011;1882;52.256;8.874;2023-08-08T03:45:17;8.50;;;5.07;;
3733;SDS011;1882;52.256;8.874;2023-08-08T03:47:44;10.00;;;4.90;;
3733;SDS011;1882;52.256;8.874;2023-08-08T03:50:12;8.40;;;5.20;;
3733;SDS011;1882;52.256;8.874;2023-08-08T03:52:38;7.53;;;5.10;;
3733;SDS011;1882;52.256;8.874;2023-08-08T03:55:09;7.00;;;5.70;;
3733;SDS011;1882;52.256;8.874;2023-08-08T03:57:39;10.23;;;5.30;;
3733;SDS011;1882;52.256;8.874;2023-08-08T04:00:06;9.60;;;6.00;;
3733;SDS011;1882;52.256;8.874;2023-08-08T04:02:40;7.10;;;5.00;;
3733;SDS011;1882;52.256;8.874;2023-08-08T04:05:07;10.60;;;5.90;;
3733;SDS011;1882;52.256;8.874;2023-08-08T04:07:35;7.77;;;6.10;;
3733;SDS011;1882;52.256;8.874;2023-08-08T04:10:02;6.57;;;5.30;;
3733;SDS011;1882;52.256;8.874;2023-08-08T04:12:28;9.90;;;6.13;;
3733;SDS011;1882;52.256;8.874;2023-08-08T04:14:58;8.83;;;5.60;;
3733;SDS011;1882;52.256;8.874;2023-08-08T04:17:25;7.20;;;5.73;;
3733;SDS011;1882;52.256;8.874;2023-08-08T04:19:51;9.50;;;6.23;;
3733;SDS011;1882;52.256;8.874;2023-08-08T04:22:19;12.10;;;7.23;;
3733;SDS011;1882;52.256;8.874;2023-08-08T04:24:45;9.63;;;7.07;;
3733;SDS011;1882;52.256;8.874;2023-08-08T04:27:21;10.73;;;7.50;;
3733;SDS011;1882;52.256;8.874;2023-08-08T04:29:48;13.90;;;7.60;;
3733;SDS011;1882;52.256;8.874;2023-08-08T04:32:15;12.23;;;7.30;;
3733;SDS011;1882;52.256;8.874;2023-08-08T04:34:41;11.40;;;6.57;;
3733;SDS011;1882;52.256;8.874;2023-08-08T04:37:16;11.57;;;7.60;;
3733;SDS011;1882;52.256;8.874;2023-08-08T04:39:44;11.97;;;8.17;;
3733;SDS011;1882;52.256;8.874;2023-08-08T04:42:14;11.87;;;7.70;;
3733;SDS011;1882;52.256;8.874;2023-08-08T04:44:48;14.60;;;9.03;;
3733;SDS011;1882;52.256;8.874;2023-08-08T04:47:15;13.20;;;8.70;;
3733;SDS011;1882;52.256;8.874;2023-08-08T04:49:41;14.90;;;8.20;;
3733;SDS011;1882;52.256;8.874;2023-08-08T04:52:08;11.30;;;7.87;;
3733;SDS011;1882;52.256;8.874;2023-08-08T04:54:35;12.93;;;8.83;;
3733;SDS011;1882;52.256;8.874;2023-08-08T04:57:02;14.57;;;8.43;;
3733;SDS011;1882;52.256;8.874;2023-08-08T04:59:28;16.27;;;8.10;;
3733;SDS011;1882;52.256;8.874;2023-08-08T05:01:55;11.43;;;8.40;;
3733;SDS011;1882;52.256;8.874;2023-08-08T05:04:22;12.10;;;8.40;;
3733;SDS011;1882;52.256;8.874;2023-08-08T05:06:49;12.80;;;8.40;;
3733;SDS011;1882;52.256;8.874;2023-08-08T05:09:24;13.83;;;8.33;;
3733;SDS011;1882;52.256;8.874;2023-08-08T05:11:52;15.83;;;8.90;;
3733;SDS011;1882;52.256;8.874;2023-08-08T05:14:19;13.87;;;9.13;;
3733;SDS011;1882;52.256;8.874;2023-08-08T05:16:46;16.53;;;9.00;;
3733;SDS011;1882;52.256;8.874;2023-08-08T05:19:15;15.60;;;8.67;;
3733;SDS011;1882;52.256;8.874;2023-08-08T05:21:42;14.50;;;8.77;;
3733;SDS011;1882;52.256;8.874;2023-08-08T05:24:09;14.07;;;8.97;;
3733;SDS011;1882;52.256;8.874;2023-08-08T05:26:36;14.27;;;8.80;;
3733;SDS011;1882;52.256;8.874;2023-08-08T05:29:03;12.60;;;8.00;;
3733;SDS011;1882;52.256;8.874;2023-08-08T05:31:29;14.20;;;8.43;;
3733;SDS011;1882;52.256;8.874;2023-08-08T05:33:59;13.27;;;8.80;;
3733;SDS011;1882;52.256;8.874;2023-08-08T05:36:25;13.60;;;9.03;;
3733;SDS011;1882;52.256;8.874;2023-08-08T05:38:52;22.37;;;9.50;;
3733;SDS011;1882;52.256;8.874;2023-08-08T05:41:19;13.93;;;8.10;;
3733;SDS011;1882;52.256;8.874;2023-08-08T05:43:45;16.80;;;9.00;;
3733;SDS011;1882;52.256;8.874;2023-08-08T05:46:14;13.93;;;7.97;;
3733;SDS011;1882;52.256;8.874;2023-08-08T05:48:41;16.67;;;8.63;;
3733;SDS011;1882;52.256;8.874;2023-08-08T05:51:08;11.73;;;8.80;;
3733;SDS011;1882;52.256;8.874;2023-08-08T05:53:35;14.30;;;9.27;;
3733;SDS011;1882;52.256;8.874;2023-08-08T05:56:03;12.37;;;8.60;;
3733;SDS011;1882;52.256;8.874;2023-08-08T05:58:30;9.47;;;8.00;;
3733;SDS011;1882;52.256;8.874;2023-08-08T06:00:57;13.37;;;8.43;;
3733;SDS011;1882;52.256;8.874;2023-08-08T06:03:25;17.10;;;8.70;;
3733;SDS011;1882;52.256;8.874;2023-08-08T06:06:02;14.43;;;8.20;;
3733;SDS011;1882;52.256;8.874;2023-08-08T06:08:29;17.40;;;9.43;;
3733;SDS011;1882;52.256;8.874;2023-08-08T06:10:56;11.30;;;8.60;;
3733;SDS011;1882;52.256;8.874;2023-08-08T06:13:25;12.00;;;8.27;;
3733;SDS011;1882;52.256;8.874;2023-08-08T06:16:04;15.60;;;8.23;;
3733;SDS011;1882;52.256;8.874;2023-08-08T06:18:33;14.17;;;7.90;;
3733;SDS011;1882;52.256;8.874;2023-08-08T06:21:04;12.27;;;7.77;;
3733;SDS011;1882;52.256;8.874;2023-08-08T06:23:31;11.50;;;8.57;;
3733;SDS011;1882;52.256;8.874;2023-08-08T06:26:00;14.47;;;8.90;;
3733;SDS011;1882;52.256;8.874;2023-08-08T06:28:27;13.70;;;8.07;;
3733;SDS011;1882;52.256;8.874;2023-08-08T06:30:57;15.10;;;8.70;;
3733;SDS011;1882;52.256;8.874;2023-08-08T06:33:27;13.03;;;7.70;;
3733;SDS011;1882;52.256;8.874;2023-08-08T06:35:58;11.23;;;7.87;;
3733;SDS011;1882;52.256;8.874;2023-08-08T06:38:29;12.50;;;7.23;;
3733;SDS011;1882;52.256;8.874;2023-08-08T06:41:00;16.13;;;7.93;;
3733;SDS011;1882;52.256;8.874;2023-08-08T06:43:29;13.07;;;7.90;;
3733;SDS011;1882;52.256;8.874;2023-08-08T06:45:56;12.27;;;7.00;;
3733;SDS011;1882;52.256;8.874;2023-08-08T06:48:26;12.83;;;7.63;;
3733;SDS011;1882;52.256;8.874;2023-08-08T06:50:55;10.07;;;6.80;;
3733;SDS011;1882;52.256;8.874;2023-08-08T06:53:29;9.10;;;7.83;;
3733;SDS011;1882;52.256;8.874;2023-08-08T06:55:55;14.00;;;7.40;;
3733;SDS011;1882;52.256;8.874;2023-08-08T06:58:25;10.70;;;7.40;;
3733;SDS011;1882;52.256;8.874;2023-08-08T07:00:51;11.90;;;7.33;;
3733;SDS011;1882;52.256;8.874;2023-08-08T07:03:18;11.20;;;7.07;;
3733;SDS011;1882;52.256;8.874;2023-08-08T07:05:45;16.07;;;7.20;;
3733;SDS011;1882;52.256;8.874;2023-08-08T07:08:13;9.87;;;6.60;;
3733;SDS011;1882;52.256;8.874;2023-08-08T07:10:40;9.13;;;6.57;;
3733;SDS011;1882;52.256;8.874;2023-08-08T07:13:07;12.63;;;6.60;;
3733;SDS011;1882;52.256;8.874;2023-08-08T07:15:34;9.70;;;6.10;;
3733;SDS011;1882;52.256;8.874;2023-08-08T07:18:01;8.13;;;5.37;;
3733;SDS011;1882;52.256;8.874;2023-08-08T07:20:28;8.43;;;5.40;;
3733;SDS011;1882;52.256;8.874;2023-08-08T07:22:55;10.50;;;5.80;;
3733;SDS011;1882;52.256;8.874;2023-08-08T07:25:22;7.73;;;4.73;;
3733;SDS011;1882;52.256;8.874;2023-08-08T07:27:49;8.43;;;4.60;;
3733;SDS011;1882;52.256;8.874;2023-08-08T07:30:15;8.13;;;4.77;;
3733;SDS011;1882;52.256;8.874;2023-08-08T07:32:42;8.57;;;4.40;;
3733;SDS011;1882;52.256;8.874;2023-08-08T07:35:09;11.40;;;5.10;;
3733;SDS011;1882;52.256;8.874;2023-08-08T07:37:37;10.57;;;4.90;;
3733;SDS011;1882;52.256;8.874;2023-08-08T07:40:12;11.87;;;5.03;;
3733;SDS011;1882;52.256;8.874;2023-08-08T07:42:40;8.00;;;4.53;;
3733;SDS011;1882;52.256;8.874;2023-08-08T07:45:09;9.33;;;5.17;;
3733;SDS011;1882;52.256;8.874;2023-08-08T07:47:36;10.50;;;4.87;;
3733;SDS011;1882;52.256;8.874;2023-08-08T07:50:09;10.00;;;4.53;;
3733;SDS011;1882;52.256;8.874;2023-08-08T07:52:42;13.43;;;4.70;;
3733;SDS011;1882;52.256;8.874;2023-08-08T07:55:11;10.67;;;4.90;;
3733;SDS011;1882;52.256;8.874;2023-08-08T07:57:40;8.20;;;4.60;;
3733;SDS011;1882;52.256;8.874;2023-08-08T08:00:15;8.77;;;4.70;;
3733;SDS011;1882;52.256;8.874;2023-08-08T08:02:45;10.20;;;5.00;;
3733;SDS011;1882;52.256;8.874;2023-08-08T08:05:13;8.73;;;5.00;;
3733;SDS011;1882;52.256;8.874;2023-08-08T08:07:43;9.30;;;4.77;;
3733;SDS011;1882;52.256;8.874;2023-08-08T08:10:12;11.40;;;5.20;;
3733;SDS011;1882;52.256;8.874;2023-08-08T08:12:40;13.07;;;5.70;;
3733;SDS011;1882;52.256;8.874;2023-08-08T08:15:12;5.53;;;4.90;;
3733;SDS011;1882;52.256;8.874;2023-08-08T08:17:39;10.17;;;5.80;;
3733;SDS011;1882;52.256;8.874;2023-08-08T08:20:06;12.17;;;5.90;;
3733;SDS011;1882;52.256;8.874;2023-08-08T08:22:42;12.77;;;6.30;;
3733;SDS011;1882;52.256;8.874;2023-08-08T08:25:11;7.90;;;5.63;;
3733;SDS011;1882;52.256;8.874;2023-08-08T08:27:40;12.23;;;5.53;;
3733;SDS011;1882;52.256;8.874;2023-08-08T08:30:15;12.37;;;5.87;;
3733;SDS011;1882;52.256;8.874;2023-08-08T08:32:43;8.50;;;5.60;;
3733;SDS011;1882;52.256;8.874;2023-08-08T08:35:10;16.20;;;5.57;;
3733;SDS011;1882;52.256;8.874;2023-08-08T08:37:41;10.30;;;5.10;;
3733;SDS011;1882;52.256;8.874;2023-08-08T08:40:08;7.10;;;4.60;;
3733;SDS011;1882;52.256;8.874;2023-08-08T08:42:36;9.40;;;5.40;;
3733;SDS011;1882;52.256;8.874;2023-08-08T08:45:04;9.27;;;4.67;;
3733;SDS011;1882;52.256;8.874;2023-08-08T08:47:43;10.70;;;5.80;;
3733;SDS011;1882;52.256;8.874;2023-08-08T08:50:13;11.50;;;6.23;;
3733;SDS011;1882;52.256;8.874;2023-08-08T08:52:51;10.50;;;6.20;;
3733;SDS011;1882;52.256;8.874;2023-08-08T08:55:18;9.30;;;5.90;;
3733;SDS011;1882;52.256;8.874;2023-08-08T08:57:45;9.40;;;6.33;;
3733;SDS011;1882;52.256;8.874;2023-08-08T09:00:12;11.53;;;5.40;;
3733;SDS011;1882;52.256;8.874;2023-08-08T09:02:39;8.33;;;5.90;;
3733;SDS011;1882;52.256;8.874;2023-08-08T09:05:06;6.90;;;5.43;;
3733;SDS011;1882;52.256;8.874;2023-08-08T09:07:33;16.53;;;6.20;;
3733;SDS011;1882;52.256;8.874;2023-08-08T09:10:04;8.93;;;5.47;;
3733;SDS011;1882;52.256;8.874;2023-08-08T09:12:37;8.73;;;5.27;;
3733;SDS011;1882;52.256;8.874;2023-08-08T09:15:10;7.70;;;4.60;;
3733;SDS011;1882;52.256;8.874;2023-08-08T09:17:41;12.50;;;5.13;;
3733;SDS011;1882;52.256;8.874;2023-08-08T09:20:14;9.60;;;4.90;;
3733;SDS011;1882;52.256;8.874;2023-08-08T09:22:42;8.60;;;5.03;;
3733;SDS011;1882;52.256;8.874;2023-08-08T09:25:09;6.47;;;4.70;;
3733;SDS011;1882;52.256;8.874;2023-08-08T09:27:36;12.20;;;4.73;;
3733;SDS011;1882;52.256;8.874;2023-08-08T09:30:12;8.73;;;4.47;;
3733;SDS011;1882;52.256;8.874;2023-08-08T09:32:39;10.37;;;4.93;;
3733;SDS011;1882;52.256;8.874;2023-08-08T09:35:09;8.10;;;4.10;;
3733;SDS011;1882;52.256;8.874;2023-08-08T09:37:38;7.40;;;4.10;;
3733;SDS011;1882;52.256;8.874;2023-08-08T09:40:05;6.83;;;4.03;;
3733;SDS011;1882;52.256;8.874;2023-08-08T09:42:39;4.47;;;3.77;;
3733;SDS011;1882;52.256;8.874;2023-08-08T09:45:07;8.00;;;3.80;;
3733;SDS011;1882;52.256;8.874;2023-08-08T09:47:35;8.20;;;3.90;;
3733;SDS011;1882;52.256;8.874;2023-08-08T09:50:15;9.13;;;3.60;;
3733;SDS011;1882;52.256;8.874;2023-08-08T09:52:41;6.90;;;3.20;;
3733;SDS011;1882;52.256;8.874;2023-08-08T09:55:12;6.20;;;3.33;;
3733;SDS011;1882;52.256;8.874;2023-08-08T09:57:41;5.67;;;3.13;;
3733;SDS011;1882;52.256;8.874;2023-08-08T10:00:08;7.40;;;2.83;;
3733;SDS011;1882;52.256;8.874;2023-08-08T10:02:43;6.70;;;2.80;;
3733;SDS011;1882;52.256;8.874;2023-08-08T10:05:13;6.03;;;3.13;;
3733;SDS011;1882;52.256;8.874;2023-08-08T10:07:41;5.33;;;2.70;;
3733;SDS011;1882;52.256;8.874;2023-08-08T10:10:08;9.30;;;3.30;;
3733;SDS011;1882;52.256;8.874;2023-08-08T10:12:39;8.27;;;3.37;;
3733;SDS011;1882;52.256;8.874;2023-08-08T10:15:09;5.50;;;3.00;;
3733;SDS011;1882;52.256;8.874;2023-08-08T10:17:37;7.47;;;3.20;;
3733;SDS011;1882;52.256;8.874;2023-08-08T10:20:05;6.87;;;3.33;;
3733;SDS011;1882;52.256;8.874;2023-08-08T10:22:44;5.33;;;3.03;;
3733;SDS011;1882;52.256;8.874;2023-08-08T10:25:22;3.80;;;3.27;;
3733;SDS011;1882;52.256;8.874;2023-08-08T10:28:01;3.40;;;2.77;;
3733;SDS011;1882;52.256;8.874;2023-08-08T10:30:56;7.97;;;3.17;;
3733;SDS011;1882;52.256;8.874;2023-08-08T10:33:25;8.80;;;3.87;;
3733;SDS011;1882;52.256;8.874;2023-08-08T10:38:23;8.37;;;3.00;;
3733;SDS011;1882;52.256;8.874;2023-08-08T10:40:57;7.73;;;3.30;;
3733;SDS011;1882;52.256;8.874;2023-08-08T10:43:29;5.73;;;3.07;;
3733;SDS011;1882;52.256;8.874;2023-08-08T10:45:57;7.37;;;3.20;;
3733;SDS011;1882;52.256;8.874;2023-08-08T10:48:48;4.90;;;2.60;;
3733;SDS011;1882;52.256;8.874;2023-08-08T10:51:18;5.20;;;2.77;;
3733;SDS011;1882;52.256;8.874;2023-08-08T10:53:45;3.70;;;2.60;;
3733;SDS011;1882;52.256;8.874;2023-08-08T10:56:13;5.30;;;2.73;;
3733;SDS011;1882;52.256;8.874;2023-08-08T10:58:41;7.20;;;3.00;;
3733;SDS011;1882;52.256;8.874;2023-08-08T11:01:15;4.10;;;2.67;;
3733;SDS011;1882;52.256;8.874;2023-08-08T11:03:43;3.43;;;2.20;;
3733;SDS011;1882;52.256;8.874;2023-08-08T11:06:11;4.03;;;2.60;;
3733;SDS011;1882;52.256;8.874;2023-08-08T11:08:38;8.17;;;2.30;;
3733;SDS011;1882;52.256;8.874;2023-08-08T11:11:05;4.10;;;2.60;;
3733;SDS011;1882;52.256;8.874;2023-08-08T11:13:34;5.13;;;2.57;;
3733;SDS011;1882;52.256;8.874;2023-08-08T11:16:01;3.50;;;2.33;;
3733;SDS011;1882;52.256;8.874;2023-08-08T11:18:28;6.30;;;2.20;;
3733;SDS011;1882;52.256;8.874;2023-08-08T11:21:11;2.83;;;2.10;;
3733;SDS011;1882;52.256;8.874;2023-08-08T11:23:47;5.40;;;2.70;;
3733;SDS011;1882;52.256;8.874;2023-08-08T11:26:16;4.53;;;2.50;;
3733;SDS011;1882;52.256;8.874;2023-08-08T11:28:50;4.20;;;2.37;;
3733;SDS011;1882;52.256;8.874;2023-08-08T11:31:19;4.90;;;2.40;;
3733;SDS011;1882;52.256;8.874;2023-08-08T11:33:48;3.93;;;2.50;;
3733;SDS011;1882;52.256;8.874;2023-08-08T11:36:15;6.63;;;2.40;;
3733;SDS011;1882;52.256;8.874;2023-08-08T11:38:42;5.00;;;2.40;;
3733;SDS011;1882;52.256;8.874;2023-08-08T11:41:13;3.53;;;2.33;;
3733;SDS011;1882;52.256;8.874;2023-08-08T11:43:40;4.57;;;2.30;;
3733;SDS011;1882;52.256;8.874;2023-08-08T11:46:13;3.60;;;2.23;;
3733;SDS011;1882;52.256;8.874;2023-08-08T11:48:40;3.83;;;2.13;;
3733;SDS011;1882;52.256;8.874;2023-08-08T11:51:08;2.73;;;2.00;;
3733;SDS011;1882;52.256;8.874;2023-08-08T11:53:36;2.50;;;1.97;;
3733;SDS011;1882;52.256;8.874;2023-08-08T11:56:03;6.03;;;2.60;;
3733;SDS011;1882;52.256;8.874;2023-08-08T11:58:30;3.10;;;2.07;;
3733;SDS011;1882;52.256;8.874;2023-08-08T12:00:59;4.07;;;1.90;;
3733;SDS011;1882;52.256;8.874;2023-08-08T12:03:26;5.97;;;2.10;;
3733;SDS011;1882;52.256;8.874;2023-08-08T12:05:55;4.00;;;2.03;;
3733;SDS011;1882;52.256;8.874;2023-08-08T12:08:22;2.20;;;1.70;;
3733;SDS011;1882;52.256;8.874;2023-08-08T12:10:50;2.97;;;1.90;;
3733;SDS011;1882;52.256;8.874;2023-08-08T12:13:23;4.37;;;2.07;;
3733;SDS011;1882;52.256;8.874;2023-08-08T12:15:53;6.43;;;2.00;;
3733;SDS011;1882;52.256;8.874;2023-08-08T12:18:24;5.13;;;2.23;;
3733;SDS011;1882;52.256;8.874;2023-08-08T12:20:52;3.33;;;1.87;;
3733;SDS011;1882;52.256;8.874;2023-08-08T12:23:19;2.90;;;1.87;;
3733;SDS011;1882;52.256;8.874;2023-08-08T12:25:46;3.90;;;1.90;;
3733;SDS011;1882;52.256;8.874;2023-08-08T12:28:13;2.23;;;1.77;;
3733;SDS011;1882;52.256;8.874;2023-08-08T12:30:40;2.73;;;2.10;;
3733;SDS011;1882;52.256;8.874;2023-08-08T12:33:07;2.33;;;2.03;;
3733;SDS011;1882;52.256;8.874;2023-08-08T12:35:34;2.30;;;1.60;;
3733;SDS011;1882;52.256;8.874;2023-08-08T12:38:00;3.17;;;1.70;;
3733;SDS011;1882;52.256;8.874;2023-08-08T12:40:27;4.50;;;1.80;;
3733;SDS011;1882;52.256;8.874;2023-08-08T12:42:54;3.27;;;1.73;;
3733;SDS011;1882;52.256;8.874;2023-08-08T12:45:21;3.07;;;2.07;;
3733;SDS011;1882;52.256;8.874;2023-08-08T12:47:48;3.10;;;1.93;;
3733;SDS011;1882;52.256;8.874;2023-08-08T12:50:15;4.90;;;1.80;;
3733;SDS011;1882;52.256;8.874;2023-08-08T12:52:42;2.57;;;1.90;;
3733;SDS011;1882;52.256;8.874;2023-08-08T12:55:09;2.43;;;1.80;;
3733;SDS011;1882;52.256;8.874;2023-08-08T12:57:40;5.00;;;2.27;;
3733;SDS011;1882;52.256;8.874;2023-08-08T13:00:07;3.10;;;1.90;;
3733;SDS011;1882;52.256;8.874;2023-08-08T13:02:37;3.00;;;1.70;;
3733;SDS011;1882;52.256;8.874;2023-08-08T13:05:17;2.50;;;1.90;;
3733;SDS011;1882;52.256;8.874;2023-08-08T13:07:44;4.43;;;1.90;;
3733;SDS011;1882;52.256;8.874;2023-08-08T13:10:11;1.93;;;1.63;;
3733;SDS011;1882;52.256;8.874;2023-08-08T13:12:38;2.77;;;1.73;;
3733;SDS011;1882;52.256;8.874;2023-08-08T13:15:09;3.80;;;1.70;;
3733;SDS011;1882;52.256;8.874;2023-08-08T13:17:38;2.60;;;1.70;;
3733;SDS011;1882;52.256;8.874;2023-08-08T13:20:25;2.30;;;1.50;;
3733;SDS011;1882;52.256;8.874;2023-08-08T13:22:52;3.77;;;1.67;;
3733;SDS011;1882;52.256;8.874;2023-08-08T13:25:18;2.80;;;1.60;;
3733;SDS011;1882;52.256;8.874;2023-08-08T13:27:45;3.57;;;1.67;;
3733;SDS011;1882;52.256;8.874;2023-08-08T13:30:14;3.17;;;1.70;;
3733;SDS011;1882;52.256;8.874;2023-08-08T13:32:43;3.73;;;1.70;;
3733;SDS011;1882;52.256;8.874;2023-08-08T13:35:10;5.43;;;1.80;;
3733;SDS011;1882;52.256;8.874;2023-08-08T13:37:37;1.73;;;1.40;;
3733;SDS011;1882;52.256;8.874;2023-08-08T13:40:04;1.80;;;1.40;;
3733;SDS011;1882;52.256;8.874;2023-08-08T13:42:41;2.47;;;1.30;;
3733;SDS011;1882;52.256;8.874;2023-08-08T13:45:08;1.67;;;1.27;;
3733;SDS011;1882;52.256;8.874;2023-08-08T13:47:37;6.30;;;1.40;;
3733;SDS011;1882;52.256;8.874;2023-08-08T13:50:04;1.67;;;1.30;;
3733;SDS011;1882;52.256;8.874;2023-08-08T13:52:31;1.77;;;1.47;;
3733;SDS011;1882;52.256;8.874;2023-08-08T13:54:59;3.13;;;1.50;;
3733;SDS011;1882;52.256;8.874;2023-08-08T13:57:26;1.83;;;1.40;;
3733;SDS011;1882;52.256;8.874;2023-08-08T13:59:53;2.17;;;1.50;;
3733;SDS011;1882;52.256;8.874;2023-08-08T14:02:20;1.50;;;1.40;;
3733;SDS011;1882;52.256;8.874;2023-08-08T14:04:46;1.33;;;1.23;;
3733;SDS011;1882;52.256;8.874;2023-08-08T14:07:14;1.87;;;1.20;;
3733;SDS011;1882;52.256;8.874;2023-08-08T14:09:41;1.40;;;1.30;;
3733;SDS011;1882;52.256;8.874;2023-08-08T14:12:07;2.73;;;1.47;;
3733;SDS011;1882;52.256;8.874;2023-08-08T14:14:35;3.23;;;1.50;;
3733;SDS011;1882;52.256;8.874;2023-08-08T14:17:02;1.73;;;1.30;;
3733;SDS011;1882;52.256;8.874;2023-08-08T14:19:29;3.33;;;1.70;;
3733;SDS011;1882;52.256;8.874;2023-08-08T14:21:55;2.67;;;1.60;;
3733;SDS011;1882;52.256;8.874;2023-08-08T14:24:22;2.53;;;1.53;;
3733;SDS011;1882;52.256;8.874;2023-08-08T14:26:49;1.57;;;1.47;;
3733;SDS011;1882;52.256;8.874;2023-08-08T14:29:15;4.27;;;1.37;;
3733;SDS011;1882;52.256;8.874;2023-08-08T14:31:52;2.00;;;1.57;;
3733;SDS011;1882;52.256;8.874;2023-08-08T14:34:30;2.93;;;1.70;;
3733;SDS011;1882;52.256;8.874;2023-08-08T14:36:57;3.03;;;1.80;;
3733;SDS011;1882;52.256;8.874;2023-08-08T14:39:24;3.70;;;1.50;;
3733;SDS011;1882;52.256;8.874;2023-08-08T14:41:53;2.70;;;1.57;;
3733;SDS011;1882;52.256;8.874;2023-08-08T14:44:21;1.63;;;1.50;;
3733;SDS011;1882;52.256;8.874;2023-08-08T14:46:48;1.70;;;1.60;;
3733;SDS011;1882;52.256;8.874;2023-08-08T14:49:19;1.50;;;1.40;;
3733;SDS011;1882;52.256;8.874;2023-08-08T14:51:46;4.10;;;1.60;;
3733;SDS011;1882;52.256;8.874;2023-08-08T14:54:15;3.63;;;1.83;;
3733;SDS011;1882;52.256;8.874;2023-08-08T14:56:42;4.60;;;1.70;;
3733;SDS011;1882;52.256;8.874;2023-08-08T14:59:09;5.13;;;1.90;;
3733;SDS011;1882;52.256;8.874;2023-08-08T15:01:36;1.80;;;1.70;;
3733;SDS011;1882;52.256;8.874;2023-08-08T15:04:02;1.97;;;1.50;;
3733;SDS011;1882;52.256;8.874;2023-08-08T15:06:32;2.70;;;1.80;;
3733;SDS011;1882;52.256;8.874;2023-08-08T15:08:59;2.10;;;1.90;;
3733;SDS011;1882;52.256;8.874;2023-08-08T15:11:27;2.43;;;1.83;;
3733;SDS011;1882;52.256;8.874;2023-08-08T15:13:54;2.00;;;1.80;;
3733;SDS011;1882;52.256;8.874;2023-08-08T15:16:20;2.37;;;1.80;;
3733;SDS011;1882;52.256;8.874;2023-08-08T15:18:47;8.00;;;2.20;;
3733;SDS011;1882;52.256;8.874;2023-08-08T15:21:14;2.43;;;1.80;;
3733;SDS011;1882;52.256;8.874;2023-08-08T15:23:46;1.90;;;1.80;;